Avalon — PBSF — position and weather

sailwx.info

Track history (hours):
 
Tides and Currents Weather Stations Pressure Air Temp Water Temp Dewpoint Dewpoint Depression Visibility Wind Speed Wind Dir Waves Ship Positions

Avalon

Last reported at 2015-Jul-03 19:33 UTC. Time now 2015-Jul-03 20:20 UTC.
Position N 52°01' E 003°59'.

Length 89 m; draft 5.5 m.

Type: Cargo ship. MMSI: 246578000.

Date/timePositionNaut miles runAvg speedWind from/ knotsBaromVisibWave heightAir tempDewpointWater temp
2015-Jul-03 19:33N 52°01' E 003°59'1211.5
2015-Jul-03 18:33N 51°55' E 004°14'6 6.4
2015-Jul-03 17:33N 51°55' E 004°25'0 0.0
2015-Jul-03 16:33N 51°55' E 004°25'0 0.0
2015-Jul-03 15:33N 51°55' E 004°25'0 0.0
2015-Jul-03 14:33N 51°55' E 004°25'0 0.0
2015-Jul-03 13:34N 51°55' E 004°25'0 0.0
2015-Jul-03 12:33N 51°55' E 004°25'0 0.0
2015-Jul-03 11:34N 51°55' E 004°25'4 4.0
2015-Jul-03 10:33N 51°54' E 004°18'9 8.9
2015-Jul-03 09:33N 51°59' E 004°07'2 1.6
2015-Jul-03 08:31N 51°57' E 004°08'0 0.0
2015-Jul-03 07:31N 51°57' E 004°08'0 0.0
2015-Jul-03 06:31N 51°57' E 004°08'0 0.0
2015-Jul-03 05:31N 51°57' E 004°08'0 0.0
2015-Jul-03 04:31N 51°57' E 004°08'0 0.0
2015-Jul-03 03:31N 51°57' E 004°08'0 0.0
2015-Jul-03 02:31N 51°57' E 004°08'0 0.0
2015-Jul-03 01:31N 51°57' E 004°08'0 0.0
2015-Jul-03 00:31N 51°57' E 004°08'0 0.0
2015-Jul-02 23:31N 51°57' E 004°08'0 0.0
2015-Jul-02 22:31N 51°57' E 004°08'0 0.0
2015-Jul-02 21:31N 51°57' E 004°08'0 0.0
2015-Jul-02 20:31N 51°57' E 004°08'0 0.1
2015-Jul-02 19:31N 51°57' E 004°08'0 0.0
2015-Jul-02 18:31N 51°57' E 004°08'0 0.0
2015-Jul-02 17:31N 51°57' E 004°08'0 0.0
2015-Jul-02 16:31N 51°57' E 004°08'0 0.0
2015-Jul-02 15:31N 51°57' E 004°08'0 0.0
2015-Jul-02 14:28N 51°57' E 004°08'0 0.0
2015-Jul-02 13:31N 51°57' E 004°08'0 0.2
2015-Jul-02 12:31N 51°57' E 004°08'0 0.0
2015-Jul-02 11:31N 51°57' E 004°08'0 0.0
2015-Jul-02 10:31N 51°57' E 004°08'0 0.0
2015-Jul-02 09:31N 51°57' E 004°08'0 0.0
2015-Jul-02 08:28N 51°57' E 004°08'0 0.0
2015-Jul-02 07:31N 51°57' E 004°08'0 0.0
2015-Jul-02 06:31N 51°57' E 004°08'0 0.0
2015-Jul-02 05:31N 51°57' E 004°08'0 0.0
2015-Jul-02 04:31N 51°57' E 004°08'0 0.0
2015-Jul-02 03:31N 51°57' E 004°08'0 0.0
2015-Jul-02 02:31N 51°57' E 004°08'0 0.0
2015-Jul-02 01:31N 51°57' E 004°08'0 0.0
2015-Jul-02 00:31N 51°57' E 004°08'0 0.0
2015-Jul-01 23:31N 51°57' E 004°08'0 0.0
2015-Jul-01 22:31N 51°57' E 004°08'0 0.0
2015-Jul-01 21:31N 51°57' E 004°08'0 0.0
2015-Jul-01 20:31N 51°57' E 004°08'0 0.0
2015-Jul-01 19:31N 51°57' E 004°08'0 0.0
2015-Jul-01 18:31N 51°57' E 004°08'0 0.0
2015-Jul-01 17:31N 51°57' E 004°08'0 0.0
2015-Jul-01 16:31N 51°57' E 004°08'0 0.0
2015-Jul-01 15:31N 51°57' E 004°08'0 0.0
2015-Jul-01 14:31N 51°57' E 004°08'0 0.0
2015-Jul-01 13:31N 51°57' E 004°08'4 3.9
2015-Jul-01 12:33N 51°59' E 004°02'9 9.2
2015-Jul-01 11:33N 52°03' E 003°48'9 8.7
2015-Jul-01 10:33N 52°11' E 003°46'10 9.9
2015-Jul-01 09:33N 52°21' E 003°48'1010.2
2015-Jul-01 08:33N 52°31' E 003°51'1010.1
2015-Jul-01 07:33N 52°41' E 003°55'1010.0
2015-Jul-01 06:33N 52°51' E 003°59'9 9.0
2015-Jul-01 05:33N 52°59' E 004°04'9 8.8
2015-Jul-01 04:33N 53°05' E 004°14'8 8.0
2015-Jul-01 03:33N 53°11' E 004°24'8 7.9
2015-Jul-01 02:33N 53°18' E 004°30'9 8.9
2015-Jul-01 01:33N 53°26' E 004°36'1010.2
2015-Jul-01 00:34N 53°31' E 004°51'1111.1
2015-Jun-30 23:34N 53°34' E 005°09'1110.8
2015-Jun-30 22:34N 53°38' E 005°26'1010.2
2015-Jun-30 21:34N 53°41' E 005°42'9 9.4
2015-Jun-30 20:34N 53°44' E 005°57'9 8.7
2015-Jun-30 19:34N 53°47' E 006°11'8 8.4
2015-Jun-30 18:33N 53°49' E 006°25'8 8.3
2015-Jun-30 17:34N 53°51' E 006°38'9 8.9
2015-Jun-30 16:33N 53°54' E 006°53'10 9.9
2015-Jun-30 15:33N 53°56' E 007°09'1210.6
2015-Jun-30 14:23N 53°59' E 007°30'910.6
2015-Jun-30 13:34N 54°02' E 007°44'1110.6
2015-Jun-30 12:32N 54°01' E 008°03'1210.9
2015-Jun-30 11:27N 53°60' E 008°23'8 9.6
2015-Jun-30 10:33N 53°58' E 008°37'8 7.9
2015-Jun-30 09:33N 53°51' E 008°45'7 6.7
2015-Jun-30 08:33N 53°51' E 008°57'8 7.5
2015-Jun-30 07:33N 53°54' E 009°08'1 0.8
2015-Jun-30 06:33N 53°54' E 009°10'3 3.5
2015-Jun-30 05:33N 53°57' E 009°14'7 6.9
2015-Jun-30 04:33N 54°03' E 009°18'8 8.0
2015-Jun-30 03:32N 54°10' E 009°25'8 7.8
2015-Jun-30 02:34N 54°14' E 009°36'8 8.0
2015-Jun-30 01:33N 54°20' E 009°45'7 7.3
2015-Jun-30 00:33N 54°21' E 009°57'6 6.0
2015-Jun-29 23:34N 54°22' E 010°07'2 1.9
2015-Jun-29 22:34N 54°22' E 010°10'8 7.9
2015-Jun-29 21:34N 54°29' E 010°16'9 9.0
2015-Jun-29 20:33N 54°34' E 010°30'9 9.5
2015-Jun-29 19:33N 54°39' E 010°44'9 7.9
2015-Jun-29 18:29N 54°46' E 010°52'6 6.8
2015-Jun-29 17:33N 54°52' E 010°56'5 4.9
2015-Jun-29 16:33N 54°50' E 011°04'2 0.0
2015-Jun-27 19:32N 54°50' E 011°07'0 0.0
2015-Jun-27 16:14N 54°50' E 011°07'0 0.0
2015-Jun-27 15:31N 54°50' E 011°07'4 4.6
2015-Jun-27 14:34N 54°50' E 010°60'7 6.9
2015-Jun-27 13:30N 54°57' E 010°57'19 9.2
2015-Jun-27 11:29N 55°15' E 011°05'42 8.2
2015-Jun-27 06:19N 55°40' E 010°04'48 1.1
2015-Jun-25 09:33N 54°52' E 010°13'1010.2
2015-Jun-25 08:33N 54°42' E 010°19'1010.4
2015-Jun-25 07:33N 54°32' E 010°20'1010.3
2015-Jun-25 06:33N 54°23' E 010°12'3 2.5
2015-Jun-25 05:33N 54°22' E 010°07'8 7.9
2015-Jun-25 04:33N 54°21' E 009°54'6 5.7
2015-Jun-25 03:33N 54°20' E 009°44'6 5.7
2015-Jun-25 02:33N 54°16' E 009°38'5 4.6
2015-Jun-25 01:33N 54°12' E 009°34'8 8.0
2015-Jun-25 00:33N 54°09' E 009°21'6 6.5
2015-Jun-24 23:33N 54°03' E 009°18'6 6.4
2015-Jun-24 22:33N 53°57' E 009°14'3 3.3
2015-Jun-24 21:33N 53°54' E 009°10'3 2.9
2015-Jun-24 20:33N 53°53' E 009°06'5 5.5
2015-Jun-24 19:33N 53°51' E 008°57'10 9.5
2015-Jun-24 18:33N 53°54' E 008°42'10 9.6
2015-Jun-24 17:33N 53°59' E 008°28'1010.0
2015-Jun-24 16:33N 53°59' E 008°10'1110.7
2015-Jun-24 15:33N 53°57' E 007°53'1111.2
2015-Jun-24 14:33N 53°54' E 007°34'1111.4
2015-Jun-24 13:33N 53°52' E 007°15'4611.2
2015-Jun-24 09:29N 53°40' E 006°01'910.1
2015-Jun-24 08:33N 53°38' E 005°46'9 9.5
2015-Jun-24 07:33N 53°35' E 005°30'9 9.2
2015-Jun-24 06:33N 53°32' E 005°16'9 9.0
2015-Jun-24 05:33N 53°29' E 005°01'9 9.0
2015-Jun-24 04:33N 53°25' E 004°48'8 8.0
2015-Jun-24 03:33N 53°19' E 004°39'17 8.4
2015-Jun-24 01:31N 53°04' E 004°25'21 9.0
2015-Jun-23 23:08N 52°45' E 004°08'6 9.8
2015-Jun-23 22:33N 52°40' E 004°03'22 9.9
2015-Jun-23 20:20N 52°22' E 003°42'  
Track history (hours):
 
Tides and Currents Weather Stations Pressure Air Temp Water Temp Dewpoint Dewpoint Depression Visibility Wind Speed Wind Dir Waves Ship Positions

Avalon

Last reported at 2015-Jul-03 19:33 UTC. Time now 2015-Jul-03 20:20 UTC.
Position N 52°01' E 003°59'.

Length 89 m; draft 5.5 m.

Type: Cargo ship. MMSI: 246578000.

Date/timePositionNaut miles runAvg speedWind from/ knotsBaromVisibWave heightAir tempDewpointWater temp
2015-Jul-03 19:33N 52°01' E 003°59'1211.5
2015-Jul-03 18:33N 51°55' E 004°14'6 6.4
2015-Jul-03 17:33N 51°55' E 004°25'0 0.0
2015-Jul-03 16:33N 51°55' E 004°25'0 0.0
2015-Jul-03 15:33N 51°55' E 004°25'0 0.0
2015-Jul-03 14:33N 51°55' E 004°25'0 0.0
2015-Jul-03 13:34N 51°55' E 004°25'0 0.0
2015-Jul-03 12:33N 51°55' E 004°25'0 0.0
2015-Jul-03 11:34N 51°55' E 004°25'4 4.0
2015-Jul-03 10:33N 51°54' E 004°18'9 8.9
2015-Jul-03 09:33N 51°59' E 004°07'2 1.6
2015-Jul-03 08:31N 51°57' E 004°08'0 0.0
2015-Jul-03 07:31N 51°57' E 004°08'0 0.0
2015-Jul-03 06:31N 51°57' E 004°08'0 0.0
2015-Jul-03 05:31N 51°57' E 004°08'0 0.0
2015-Jul-03 04:31N 51°57' E 004°08'0 0.0
2015-Jul-03 03:31N 51°57' E 004°08'0 0.0
2015-Jul-03 02:31N 51°57' E 004°08'0 0.0
2015-Jul-03 01:31N 51°57' E 004°08'0 0.0
2015-Jul-03 00:31N 51°57' E 004°08'0 0.0
2015-Jul-02 23:31N 51°57' E 004°08'0 0.0
2015-Jul-02 22:31N 51°57' E 004°08'0 0.0
2015-Jul-02 21:31N 51°57' E 004°08'0 0.0
2015-Jul-02 20:31N 51°57' E 004°08'0 0.1
2015-Jul-02 19:31N 51°57' E 004°08'0 0.0
2015-Jul-02 18:31N 51°57' E 004°08'0 0.0
2015-Jul-02 17:31N 51°57' E 004°08'0 0.0
2015-Jul-02 16:31N 51°57' E 004°08'0 0.0
2015-Jul-02 15:31N 51°57' E 004°08'0 0.0
2015-Jul-02 14:28N 51°57' E 004°08'0 0.0
2015-Jul-02 13:31N 51°57' E 004°08'0 0.2
2015-Jul-02 12:31N 51°57' E 004°08'0 0.0
2015-Jul-02 11:31N 51°57' E 004°08'0 0.0
2015-Jul-02 10:31N 51°57' E 004°08'0 0.0
2015-Jul-02 09:31N 51°57' E 004°08'0 0.0
2015-Jul-02 08:28N 51°57' E 004°08'0 0.0
2015-Jul-02 07:31N 51°57' E 004°08'0 0.0
2015-Jul-02 06:31N 51°57' E 004°08'0 0.0
2015-Jul-02 05:31N 51°57' E 004°08'0 0.0
2015-Jul-02 04:31N 51°57' E 004°08'0 0.0
2015-Jul-02 03:31N 51°57' E 004°08'0 0.0
2015-Jul-02 02:31N 51°57' E 004°08'0 0.0
2015-Jul-02 01:31N 51°57' E 004°08'0 0.0
2015-Jul-02 00:31N 51°57' E 004°08'0 0.0
2015-Jul-01 23:31N 51°57' E 004°08'0 0.0
2015-Jul-01 22:31N 51°57' E 004°08'0 0.0
2015-Jul-01 21:31N 51°57' E 004°08'0 0.0
2015-Jul-01 20:31N 51°57' E 004°08'0 0.0
2015-Jul-01 19:31N 51°57' E 004°08'0 0.0
2015-Jul-01 18:31N 51°57' E 004°08'0 0.0
2015-Jul-01 17:31N 51°57' E 004°08'0 0.0
2015-Jul-01 16:31N 51°57' E 004°08'0 0.0
2015-Jul-01 15:31N 51°57' E 004°08'0 0.0
2015-Jul-01 14:31N 51°57' E 004°08'0 0.0
2015-Jul-01 13:31N 51°57' E 004°08'4 3.9
2015-Jul-01 12:33N 51°59' E 004°02'9 9.2
2015-Jul-01 11:33N 52°03' E 003°48'9 8.7
2015-Jul-01 10:33N 52°11' E 003°46'10 9.9
2015-Jul-01 09:33N 52°21' E 003°48'1010.2
2015-Jul-01 08:33N 52°31' E 003°51'1010.1
2015-Jul-01 07:33N 52°41' E 003°55'1010.0
2015-Jul-01 06:33N 52°51' E 003°59'9 9.0
2015-Jul-01 05:33N 52°59' E 004°04'9 8.8
2015-Jul-01 04:33N 53°05' E 004°14'8 8.0
2015-Jul-01 03:33N 53°11' E 004°24'8 7.9
2015-Jul-01 02:33N 53°18' E 004°30'9 8.9
2015-Jul-01 01:33N 53°26' E 004°36'1010.2
2015-Jul-01 00:34N 53°31' E 004°51'1111.1
2015-Jun-30 23:34N 53°34' E 005°09'1110.8
2015-Jun-30 22:34N 53°38' E 005°26'1010.2
2015-Jun-30 21:34N 53°41' E 005°42'9 9.4
2015-Jun-30 20:34N 53°44' E 005°57'9 8.7
2015-Jun-30 19:34N 53°47' E 006°11'8 8.4
2015-Jun-30 18:33N 53°49' E 006°25'8 8.3
2015-Jun-30 17:34N 53°51' E 006°38'9 8.9
2015-Jun-30 16:33N 53°54' E 006°53'10 9.9
2015-Jun-30 15:33N 53°56' E 007°09'1210.6
2015-Jun-30 14:23N 53°59' E 007°30'910.6
2015-Jun-30 13:34N 54°02' E 007°44'1110.6
2015-Jun-30 12:32N 54°01' E 008°03'1210.9
2015-Jun-30 11:27N 53°60' E 008°23'8 9.6
2015-Jun-30 10:33N 53°58' E 008°37'8 7.9
2015-Jun-30 09:33N 53°51' E 008°45'7 6.7
2015-Jun-30 08:33N 53°51' E 008°57'8 7.5
2015-Jun-30 07:33N 53°54' E 009°08'1 0.8
2015-Jun-30 06:33N 53°54' E 009°10'3 3.5
2015-Jun-30 05:33N 53°57' E 009°14'7 6.9
2015-Jun-30 04:33N 54°03' E 009°18'8 8.0
2015-Jun-30 03:32N 54°10' E 009°25'8 7.8
2015-Jun-30 02:34N 54°14' E 009°36'8 8.0
2015-Jun-30 01:33N 54°20' E 009°45'7 7.3
2015-Jun-30 00:33N 54°21' E 009°57'6 6.0
2015-Jun-29 23:34N 54°22' E 010°07'2 1.9
2015-Jun-29 22:34N 54°22' E 010°10'8 7.9
2015-Jun-29 21:34N 54°29' E 010°16'9 9.0
2015-Jun-29 20:33N 54°34' E 010°30'9 9.5
2015-Jun-29 19:33N 54°39' E 010°44'9 7.9
2015-Jun-29 18:29N 54°46' E 010°52'6 6.8
2015-Jun-29 17:33N 54°52' E 010°56'5 4.9
2015-Jun-29 16:33N 54°50' E 011°04'2 0.0
2015-Jun-27 19:32N 54°50' E 011°07'0 0.0
2015-Jun-27 16:14N 54°50' E 011°07'0 0.0
2015-Jun-27 15:31N 54°50' E 011°07'4 4.6
2015-Jun-27 14:34N 54°50' E 010°60'7 6.9
2015-Jun-27 13:30N 54°57' E 010°57'19 9.2
2015-Jun-27 11:29N 55°15' E 011°05'42 8.2
2015-Jun-27 06:19N 55°40' E 010°04'48 1.1
2015-Jun-25 09:33N 54°52' E 010°13'1010.2
2015-Jun-25 08:33N 54°42' E 010°19'1010.4
2015-Jun-25 07:33N 54°32' E 010°20'1010.3
2015-Jun-25 06:33N 54°23' E 010°12'3 2.5
2015-Jun-25 05:33N 54°22' E 010°07'8 7.9
2015-Jun-25 04:33N 54°21' E 009°54'6 5.7
2015-Jun-25 03:33N 54°20' E 009°44'6 5.7
2015-Jun-25 02:33N 54°16' E 009°38'5 4.6
2015-Jun-25 01:33N 54°12' E 009°34'8 8.0
2015-Jun-25 00:33N 54°09' E 009°21'6 6.5
2015-Jun-24 23:33N 54°03' E 009°18'6 6.4
2015-Jun-24 22:33N 53°57' E 009°14'3 3.3
2015-Jun-24 21:33N 53°54' E 009°10'3 2.9
2015-Jun-24 20:33N 53°53' E 009°06'5 5.5
2015-Jun-24 19:33N 53°51' E 008°57'10 9.5
2015-Jun-24 18:33N 53°54' E 008°42'10 9.6
2015-Jun-24 17:33N 53°59' E 008°28'1010.0
2015-Jun-24 16:33N 53°59' E 008°10'1110.7
2015-Jun-24 15:33N 53°57' E 007°53'1111.2
2015-Jun-24 14:33N 53°54' E 007°34'1111.4
2015-Jun-24 13:33N 53°52' E 007°15'4611.2
2015-Jun-24 09:29N 53°40' E 006°01'910.1
2015-Jun-24 08:33N 53°38' E 005°46'9 9.5
2015-Jun-24 07:33N 53°35' E 005°30'9 9.2
2015-Jun-24 06:33N 53°32' E 005°16'9 9.0
2015-Jun-24 05:33N 53°29' E 005°01'9 9.0
2015-Jun-24 04:33N 53°25' E 004°48'8 8.0
2015-Jun-24 03:33N 53°19' E 004°39'17 8.4
2015-Jun-24 01:31N 53°04' E 004°25'21 9.0
2015-Jun-23 23:08N 52°45' E 004°08'6 9.8
2015-Jun-23 22:33N 52°40' E 004°03'22 9.9
2015-Jun-23 20:20N 52°22' E 003°42'  

Dump ship's entire track history